Time;durP1;ratioP1;P1;durP2;ratioP2;P2;SDS_P1;SDS_P2;PMS_P1;PMS_P2;Temp;Humidity;BMP_temperature;BMP_pressure;BME280_temperature;BME280_humidity;BME280_pressure;Samples;Min_cycle;Max_cycle;Signal;HPM_P1;HPM_P2
2022/01/19 00:00:46;;;;;;;13.87;8.47;;;2.80;99.90;;;;;;4915678;29;20676;-76
2022/01/19 00:03:12;;;;;;;11.13;8.53;;;2.70;99.90;;;;;;4915055;29;20824;-75
2022/01/19 00:05:39;;;;;;;12.40;8.07;;;2.60;99.90;;;;;;4914500;29;21015;-75
2022/01/19 00:08:04;;;;;;;12.97;8.23;;;2.50;99.90;;;;;;4915428;29;20494;-76
2022/01/19 00:10:30;;;;;;;10.47;7.47;;;2.40;99.90;;;;;;4932671;29;20454;-75
2022/01/19 00:12:58;;;;;;;15.60;7.43;;;2.30;99.90;;;;;;4934217;29;20212;-77
2022/01/19 00:15:25;;;;;;;8.87;7.23;;;2.20;99.90;;;;;;4948885;29;20880;-75
2022/01/19 00:17:59;;;;;;;11.83;6.87;;;2.10;99.90;;;;;;4934768;29;20476;-75
2022/01/19 00:20:29;;;;;;;12.20;6.13;;;2.00;99.90;;;;;;4949324;29;20803;-76
2022/01/19 00:22:54;;;;;;;11.00;6.20;;;1.90;99.90;;;;;;4934746;29;20869;-76
2022/01/19 00:25:20;;;;;;;14.27;7.03;;;1.70;99.90;;;;;;4933529;29;20479;-74
2022/01/19 00:27:46;;;;;;;6.60;5.60;;;1.70;99.90;;;;;;4934772;29;20249;-75
2022/01/19 00:30:13;;;;;;;7.83;5.60;;;1.60;99.90;;;;;;4934419;29;20424;-75
2022/01/19 00:32:38;;;;;;;7.73;4.60;;;1.50;99.90;;;;;;4934771;29;20559;-75
2022/01/19 00:35:06;;;;;;;10.80;5.27;;;1.40;99.90;;;;;;4933786;29;20393;-75
2022/01/19 00:37:32;;;;;;;8.80;5.43;;;1.30;99.90;;;;;;4934814;29;20198;-76
2022/01/19 00:39:57;;;;;;;7.83;5.23;;;1.30;99.90;;;;;;4934458;29;20999;-75
2022/01/19 00:42:23;;;;;;;7.43;5.20;;;1.20;99.90;;;;;;4934374;29;20429;-75
2022/01/19 00:44:48;;;;;;;8.90;5.87;;;1.10;99.90;;;;;;4934293;29;20260;-75
2022/01/19 00:47:14;;;;;;;16.10;5.57;;;1.10;99.90;;;;;;4934210;29;20288;-75
2022/01/19 00:49:42;;;;;;;8.23;5.17;;;1.10;99.90;;;;;;4934482;29;20674;-76
2022/01/19 00:52:08;;;;;;;6.20;5.30;;;0.90;99.90;;;;;;4934327;29;20533;-74
2022/01/19 00:54:33;;;;;;;9.13;4.90;;;0.80;99.90;;;;;;4934284;29;20427;-75
2022/01/19 00:56:59;;;;;;;10.67;5.07;;;0.80;99.90;;;;;;4934206;29;20417;-75
2022/01/19 00:59:24;;;;;;;5.23;4.43;;;0.70;99.90;;;;;;4934214;29;20214;-76
2022/01/19 05:31:52;;;;;;;18.07;10.77;;;-1.50;99.90;;;;;;5451691;23;20491;-74
2022/01/19 05:34:17;;;;;;;14.80;10.03;;;-1.50;99.90;;;;;;4924932;29;20392;-75
2022/01/19 05:36:43;;;;;;;18.03;10.80;;;-1.50;99.90;;;;;;4936930;29;20235;-74
2022/01/19 05:39:08;;;;;;;18.73;11.07;;;-1.50;99.90;;;;;;4934647;29;20200;-73
2022/01/19 05:41:34;;;;;;;18.70;10.50;;;-1.50;99.90;;;;;;4927756;29;20220;-73
2022/01/19 05:43:59;;;;;;;19.43;10.77;;;-1.40;99.90;;;;;;4913788;29;20264;-74
2022/01/19 05:46:25;;;;;;;15.20;10.00;;;-1.40;99.90;;;;;;4918091;29;20216;-74
2022/01/19 05:48:50;;;;;;;16.43;9.80;;;-1.40;99.90;;;;;;4916268;29;20216;-74
2022/01/19 05:51:16;;;;;;;17.87;9.40;;;-1.40;99.90;;;;;;4916190;29;20247;-75
2022/01/19 05:53:41;;;;;;;18.30;9.00;;;-1.50;99.90;;;;;;4916100;29;20190;-74
2022/01/19 05:56:07;;;;;;;17.13;10.57;;;-1.40;99.90;;;;;;4917972;29;20185;-74
2022/01/19 05:58:33;;;;;;;13.20;9.00;;;-1.40;99.90;;;;;;4915568;29;20197;-75
2022/01/19 06:00:59;;;;;;;14.43;9.63;;;-1.40;99.90;;;;;;4914676;29;20456;-74
2022/01/19 06:03:25;;;;;;;19.20;10.57;;;-1.50;99.90;;;;;;4919436;29;20182;-74
2022/01/19 06:05:51;;;;;;;18.10;10.63;;;-1.50;99.90;;;;;;4920031;29;20429;-74
2022/01/19 06:10:43;;;;;;;21.03;10.63;;;-1.50;99.90;;;;;;4914083;29;20193;-75
2022/01/19 06:13:10;;;;;;;23.37;11.63;;;-1.50;99.90;;;;;;4911038;29;20190;-75
2022/01/19 06:15:35;;;;;;;20.13;10.90;;;-1.50;99.90;;;;;;4915817;29;20501;-75
2022/01/19 06:18:02;;;;;;;21.03;10.33;;;-1.50;99.90;;;;;;4918121;29;20402;-75
2022/01/19 06:20:28;;;;;;;19.93;11.07;;;-1.50;99.90;;;;;;4915652;29;20186;-74
2022/01/19 06:22:54;;;;;;;15.50;9.27;;;-1.60;99.90;;;;;;4915471;29;20449;-74
2022/01/19 06:25:20;;;;;;;21.90;10.53;;;-1.60;99.90;;;;;;4917550;29;20237;-75
2022/01/19 06:27:45;;;;;;;20.50;10.70;;;-1.70;99.90;;;;;;4911501;29;20280;-74
2022/01/19 06:30:12;;;;;;;24.83;11.97;;;-1.60;99.90;;;;;;4917512;29;20220;-76
2022/01/19 06:32:37;;;;;;;20.07;10.43;;;-1.70;99.90;;;;;;4910917;29;20254;-75
2022/01/19 06:35:03;;;;;;;20.30;11.10;;;-1.60;99.90;;;;;;4917153;29;20416;-74
2022/01/19 06:37:29;;;;;;;20.67;12.10;;;-1.60;99.90;;;;;;4915885;29;20188;-74
2022/01/19 06:39:54;;;;;;;24.13;12.90;;;-1.60;99.90;;;;;;4917168;29;20650;-73
2022/01/19 06:42:20;;;;;;;18.50;10.37;;;-1.50;99.90;;;;;;4914796;29;20322;-73
2022/01/19 06:44:45;;;;;;;22.00;10.80;;;-1.50;99.90;;;;;;4915443;29;20192;-74
2022/01/19 06:47:11;;;;;;;17.10;10.20;;;-1.50;99.90;;;;;;4916009;29;20318;-74
2022/01/19 06:49:36;;;;;;;17.40;10.00;;;-1.50;99.90;;;;;;4917238;29;20212;-75
2022/01/19 06:52:02;;;;;;;21.70;10.80;;;-1.50;99.90;;;;;;4917208;29;20685;-74
2022/01/19 06:54:28;;;;;;;22.40;10.93;;;-1.50;99.90;;;;;;4913505;29;20189;-74
2022/01/19 06:56:54;;;;;;;26.47;14.20;;;-1.40;99.90;;;;;;4916677;29;20178;-74
2022/01/19 06:59:19;;;;;;;21.80;12.33;;;-1.40;99.90;;;;;;4913802;29;20535;-74
2022/01/19 07:01:45;;;;;;;27.07;13.97;;;-1.40;99.90;;;;;;4916441;29;20216;-75
2022/01/19 07:04:14;;;;;;;30.23;14.30;;;-1.40;99.90;;;;;;4912141;29;20193;-73
2022/01/19 07:06:39;;;;;;;30.90;15.63;;;-1.40;99.90;;;;;;4899636;29;20183;-73
2022/01/19 07:09:05;;;;;;;32.97;14.40;;;-1.40;99.90;;;;;;4898583;29;20475;-73
2022/01/19 07:11:31;;;;;;;21.30;12.80;;;-1.40;99.90;;;;;;4916808;29;20716;-73
2022/01/19 07:13:57;;;;;;;21.30;12.27;;;-1.40;99.90;;;;;;4913938;29;20545;-73
2022/01/19 07:16:23;;;;;;;23.90;11.70;;;-1.40;99.90;;;;;;4913892;29;20178;-73
2022/01/19 07:18:49;;;;;;;22.00;11.27;;;-1.30;99.90;;;;;;4916469;29;20964;-75
2022/01/19 07:21:14;;;;;;;22.47;11.43;;;-1.30;99.90;;;;;;4914649;29;20208;-74
2022/01/19 07:23:40;;;;;;;24.23;11.80;;;-1.30;99.90;;;;;;4916001;29;20477;-73
2022/01/19 07:26:06;;;;;;;24.73;10.63;;;-1.30;99.90;;;;;;4914502;29;20692;-74
2022/01/19 07:28:31;;;;;;;17.33;11.27;;;-1.30;99.90;;;;;;4910300;29;20210;-73
2022/01/19 07:30:57;;;;;;;20.53;10.20;;;-1.30;99.90;;;;;;4914052;29;20553;-73
2022/01/19 07:33:22;;;;;;;23.20;10.30;;;-1.30;99.90;;;;;;4912729;29;20209;-73
2022/01/19 07:35:51;;;;;;;17.63;10.60;;;-1.30;99.90;;;;;;4916473;29;20174;-73
2022/01/19 07:38:22;;;;;;;17.70;11.13;;;-1.20;99.90;;;;;;4913978;29;20249;-73
2022/01/19 07:40:48;;;;;;;20.00;10.53;;;-1.10;99.90;;;;;;4915910;29;20400;-72
2022/01/19 07:43:14;;;;;;;19.93;10.43;;;-1.10;99.90;;;;;;4913087;29;20910;-74
2022/01/19 07:45:39;;;;;;;21.40;11.10;;;-1.10;99.90;;;;;;4916621;29;20261;-74
2022/01/19 07:48:05;;;;;;;28.80;11.13;;;-1.00;99.90;;;;;;4913862;29;20683;-74
2022/01/19 07:50:31;;;;;;;24.73;11.07;;;-1.00;99.90;;;;;;4914110;29;20186;-74
2022/01/19 07:52:57;;;;;;;19.97;9.30;;;-1.00;99.90;;;;;;4914919;29;20429;-74
2022/01/19 07:55:23;;;;;;;25.47;11.90;;;-0.90;99.90;;;;;;4914136;29;20551;-74
2022/01/19 07:57:51;;;;;;;18.13;9.83;;;-0.80;99.90;;;;;;4914107;29;20533;-75
2022/01/19 08:00:17;;;;;;;21.90;10.67;;;-0.80;99.90;;;;;;4911952;29;20261;-75
2022/01/19 08:02:46;;;;;;;26.40;11.90;;;-0.70;99.90;;;;;;4915552;29;20855;-74
2022/01/19 08:05:12;;;;;;;23.97;11.13;;;-0.60;99.90;;;;;;4912943;29;20452;-75
2022/01/19 08:07:37;;;;;;;16.53;10.70;;;-0.50;99.90;;;;;;4915617;29;20400;-75
2022/01/19 08:10:05;;;;;;;18.47;11.70;;;-0.40;99.90;;;;;;4913499;29;20220;-76
2022/01/19 08:12:31;;;;;;;24.83;10.63;;;-0.30;99.90;;;;;;4908992;29;20216;-76
2022/01/19 08:14:58;;;;;;;21.23;10.77;;;-0.20;99.90;;;;;;4910269;29;20910;-75
2022/01/19 08:17:27;;;;;;;21.67;10.47;;;-0.10;99.90;;;;;;4913847;29;20883;-75
2022/01/19 08:19:54;;;;;;;19.20;10.93;;;0.00;99.90;;;;;;4915404;29;20731;-74
2022/01/19 08:22:20;;;;;;;16.97;10.90;;;0.10;99.90;;;;;;4911816;29;20445;-74
2022/01/19 08:24:45;;;;;;;20.13;12.93;;;0.20;99.90;;;;;;4915436;29;20393;-74
2022/01/19 08:27:11;;;;;;;23.47;12.33;;;0.30;99.90;;;;;;4909020;29;20563;-74
2022/01/19 08:29:37;;;;;;;17.27;12.50;;;0.40;99.90;;;;;;4915052;29;20221;-75
2022/01/19 08:32:04;;;;;;;22.10;12.77;;;0.50;99.90;;;;;;4911239;29;20478;-74
2022/01/19 08:34:30;;;;;;;18.63;12.03;;;0.60;99.90;;;;;;4912450;29;20667;-74
2022/01/19 08:36:56;;;;;;;17.37;10.20;;;0.80;99.90;;;;;;4914538;29;20441;-75
2022/01/19 08:39:22;;;;;;;21.30;12.60;;;0.90;99.90;;;;;;4911108;29;20217;-74
2022/01/19 08:41:48;;;;;;;25.93;12.60;;;0.90;99.90;;;;;;4908124;29;20459;-74
2022/01/19 08:44:13;;;;;;;30.13;15.30;;;0.90;99.90;;;;;;4911426;29;20186;-74
2022/01/19 08:46:40;;;;;;;33.27;17.03;;;1.10;99.90;;;;;;4914103;29;20266;-73
2022/01/19 08:49:05;;;;;;;36.30;17.40;;;1.20;99.90;;;;;;4913454;29;21142;-74
2022/01/19 08:51:31;;;;;;;36.70;17.07;;;1.20;99.90;;;;;;4915194;29;20868;-74
2022/01/19 08:53:56;;;;;;;29.40;15.27;;;1.30;99.90;;;;;;4912975;29;20193;-73
2022/01/19 08:56:22;;;;;;;30.07;11.37;;;1.40;99.90;;;;;;4919399;29;20243;-74
2022/01/19 08:58:48;;;;;;;22.30;13.47;;;1.50;99.90;;;;;;4919520;29;20219;-73
2022/01/19 09:01:13;;;;;;;16.60;11.30;;;1.50;99.90;;;;;;4919435;29;20222;-74
2022/01/19 09:03:39;;;;;;;20.17;11.23;;;1.60;99.90;;;;;;4921098;29;20186;-74
2022/01/19 09:06:04;;;;;;;25.23;13.00;;;1.70;99.90;;;;;;4917411;29;20717;-74
2022/01/19 09:08:31;;;;;;;19.50;12.70;;;1.80;99.90;;;;;;4919192;29;20269;-74
2022/01/19 09:10:58;;;;;;;22.60;11.60;;;1.90;99.90;;;;;;4918466;29;20253;-72
2022/01/19 09:13:25;;;;;;;20.33;13.00;;;2.10;99.90;;;;;;4918794;29;20473;-73
2022/01/19 09:15:50;;;;;;;26.70;13.63;;;2.30;99.90;;;;;;4919313;29;20416;-74
2022/01/19 09:18:16;;;;;;;19.00;12.23;;;2.80;99.90;;;;;;4912949;29;20504;-74
2022/01/19 09:20:42;;;;;;;21.13;11.90;;;3.40;99.90;;;;;;4920962;29;20181;-74
2022/01/19 09:23:08;;;;;;;17.40;11.63;;;3.80;99.90;;;;;;4918814;29;20559;-74
2022/01/19 09:25:33;;;;;;;22.10;11.67;;;4.30;99.90;;;;;;4921077;29;20427;-74
2022/01/19 09:27:59;;;;;;;19.23;12.40;;;4.60;99.90;;;;;;4919282;29;20188;-74
2022/01/19 09:30:25;;;;;;;19.87;13.07;;;5.10;99.90;;;;;;4919420;29;20225;-74
2022/01/19 09:33:05;;;;;;;21.07;13.00;;;5.50;99.90;;;;;;4914664;29;20455;-74
2022/01/19 09:35:39;;;;;;;15.90;9.87;;;5.90;99.90;;;;;;4921044;29;20598;-73
2022/01/19 09:38:05;;;;;;;19.13;11.23;;;6.40;99.90;;;;;;4919579;29;20794;-74
2022/01/19 09:40:31;;;;;;;23.83;11.93;;;6.60;99.90;;;;;;4915117;29;20412;-74
2022/01/19 09:42:56;;;;;;;16.83;10.67;;;6.90;99.90;;;;;;4915954;29;20189;-74
2022/01/19 09:45:22;;;;;;;13.63;10.53;;;7.10;99.90;;;;;;4919407;29;20198;-74
2022/01/19 09:47:47;;;;;;;14.80;11.20;;;6.90;99.90;;;;;;4921086;29;20201;-73
2022/01/19 09:50:13;;;;;;;14.70;11.27;;;7.20;99.90;;;;;;4917955;29;20296;-74
2022/01/19 09:52:39;;;;;;;14.90;11.57;;;7.50;99.90;;;;;;4920034;29;20240;-71
2022/01/19 09:55:06;;;;;;;18.00;11.17;;;7.80;99.90;;;;;;4918568;29;20626;-72
2022/01/19 09:57:33;;;;;;;16.60;10.83;;;8.00;99.90;;;;;;4919227;29;20439;-74
2022/01/19 09:59:59;;;;;;;15.53;11.53;;;8.20;99.90;;;;;;4920507;29;20438;-72
2022/01/19 10:02:25;;;;;;;16.70;10.20;;;8.40;99.90;;;;;;4917129;29;20486;-73
2022/01/19 10:04:51;;;;;;;15.10;10.50;;;8.20;99.90;;;;;;4920571;29;20567;-73
2022/01/19 10:07:24;;;;;;;16.20;11.47;;;8.40;99.90;;;;;;4914413;29;20605;-74
2022/01/19 10:09:58;;;;;;;17.67;10.30;;;8.50;99.90;;;;;;4918476;29;20918;-73
2022/01/19 10:18:11;;;;;;;16.13;10.47;;;8.60;99.90;;;;;;4909207;29;20534;-73
2022/01/19 10:20:37;;;;;;;14.00;9.30;;;9.10;99.90;;;;;;4917603;29;20496;-73
2022/01/19 10:23:03;;;;;;;21.63;11.27;;;9.40;99.90;;;;;;4915459;29;20611;-73
2022/01/19 10:25:49;;;;;;;15.70;11.00;;;9.20;99.90;;;;;;4915741;29;20187;-73
2022/01/19 10:28:15;;;;;;;15.30;10.63;;;9.40;99.90;;;;;;4913743;29;20188;-73
2022/01/19 10:30:40;;;;;;;12.83;10.17;;;9.30;99.90;;;;;;4917398;29;20424;-74
2022/01/19 10:33:06;;;;;;;11.57;9.90;;;9.40;99.90;;;;;;4916981;29;20664;-73
2022/01/19 10:35:37;;;;;;;15.90;10.37;;;9.70;99.90;;;;;;4914099;29;20183;-74
2022/01/19 10:38:14;;;;;;;12.93;8.97;;;9.70;99.90;;;;;;4917356;29;20184;-74
2022/01/19 10:40:44;;;;;;;12.87;9.60;;;9.80;99.90;;;;;;4915692;29;20471;-73
2022/01/19 10:43:33;;;;;;;13.17;8.90;;;10.10;99.90;;;;;;4914969;29;20528;-73
2022/01/19 10:46:23;;;;;;;19.63;9.60;;;10.00;99.90;;;;;;4913219;29;20444;-73
2022/01/19 10:48:55;;;;;;;14.80;10.20;;;10.30;99.90;;;;;;4917244;29;20612;-74
2022/01/19 10:51:21;;;;;;;15.13;11.70;;;10.10;99.90;;;;;;4915048;29;20459;-73
2022/01/19 10:54:05;;;;;;;17.23;11.23;;;10.10;99.90;;;;;;4916607;29;20415;-73
2022/01/19 10:56:32;;;;;;;17.13;11.07;;;9.90;99.90;;;;;;4909563;29;20833;-73
2022/01/19 10:59:04;;;;;;;16.47;12.00;;;9.80;99.90;;;;;;4910398;29;20449;-73
2022/01/19 11:01:45;;;;;;;17.47;11.93;;;9.70;99.90;;;;;;4913568;29;20465;-73
2022/01/19 11:04:27;;;;;;;17.03;10.97;;;9.50;99.90;;;;;;4897688;29;20772;-73
2022/01/19 11:07:03;;;;;;;15.50;10.77;;;9.70;99.90;;;;;;4898506;29;20410;-73
2022/01/19 11:09:30;;;;;;;17.87;13.47;;;9.90;99.90;;;;;;4915323;29;20473;-72
2022/01/19 11:12:06;;;;;;;18.10;12.77;;;10.00;99.90;;;;;;4916534;29;20451;-73
2022/01/19 11:14:35;;;;;;;21.07;13.07;;;9.60;99.90;;;;;;4914549;29;20450;-73
2022/01/19 11:17:02;;;;;;;22.43;13.13;;;9.50;99.90;;;;;;4916525;29;20501;-73
2022/01/19 11:19:28;;;;;;;19.37;12.90;;;9.80;99.90;;;;;;4912538;29;20510;-73
2022/01/19 11:22:12;;;;;;;20.20;12.10;;;9.80;99.90;;;;;;4916529;29;20906;-73
2022/01/19 11:24:43;;;;;;;16.20;12.07;;;9.80;99.90;;;;;;4914793;29;20471;-73
2022/01/19 11:27:09;;;;;;;19.70;12.93;;;9.70;99.90;;;;;;4916407;29;20858;-74
2022/01/19 11:29:38;;;;;;;15.77;10.93;;;9.70;99.90;;;;;;4910720;29;20471;-74
2022/01/19 11:32:19;;;;;;;18.03;12.40;;;9.70;99.90;;;;;;4916073;29;20487;-74
2022/01/19 11:34:51;;;;;;;15.43;11.80;;;9.70;99.90;;;;;;4915181;29;20518;-74
2022/01/19 11:37:36;;;;;;;15.63;11.70;;;9.70;99.90;;;;;;4916175;29;20598;-74
2022/01/19 11:40:14;;;;;;;15.97;11.10;;;9.70;99.90;;;;;;4916160;29;20432;-74
2022/01/19 11:42:41;;;;;;;17.13;11.77;;;9.50;99.90;;;;;;4909514;29;20485;-73
2022/01/19 11:45:09;;;;;;;13.97;11.17;;;9.40;99.90;;;;;;4913940;29;20805;-72
2022/01/19 11:47:36;;;;;;;21.40;10.83;;;9.40;99.90;;;;;;4914123;29;20449;-72
2022/01/19 11:50:08;;;;;;;16.10;9.83;;;9.20;99.90;;;;;;4915891;29;20494;-70
2022/01/19 11:52:40;;;;;;;12.07;8.67;;;9.20;99.90;;;;;;4912947;29;20498;-74
2022/01/19 11:55:23;;;;;;;16.10;9.60;;;9.00;99.90;;;;;;4915759;29;20395;-72
2022/01/19 11:58:09;;;;;;;15.17;10.00;;;9.00;99.90;;;;;;4911674;29;20445;-72
2022/01/19 12:00:35;;;;;;;13.63;9.73;;;8.80;99.90;;;;;;4915499;29;20796;-74
2022/01/19 12:03:21;;;;;;;11.90;8.60;;;8.80;99.90;;;;;;4913386;29;20448;-73
2022/01/19 12:05:50;;;;;;;14.93;9.57;;;8.70;99.90;;;;;;4913834;29;20448;-73
2022/01/19 12:08:35;;;;;;;12.80;8.90;;;8.30;99.90;;;;;;4911466;29;20452;-73
2022/01/19 12:11:22;;;;;;;14.30;9.97;;;8.20;99.90;;;;;;4896642;29;21002;-73
2022/01/19 12:19:10;;;;;;;11.63;8.87;;;8.20;99.90;;;;;;4896622;29;20410;-74
2022/01/19 12:22:03;;;;;;;16.37;9.73;;;8.10;99.90;;;;;;4915106;29;20452;-72
2022/01/19 12:24:36;;;;;;;20.80;9.07;;;7.90;99.90;;;;;;4914975;29;20424;-73
2022/01/19 12:27:10;;;;;;;15.33;9.80;;;7.80;99.90;;;;;;4912376;29;20942;-73
2022/01/19 12:29:38;;;;;;;10.67;8.60;;;7.80;99.90;;;;;;4908838;29;20864;-72
2022/01/19 12:32:05;;;;;;;11.97;9.20;;;7.70;99.90;;;;;;4913638;29;20543;-72
2022/01/19 12:34:52;;;;;;;13.23;9.00;;;7.60;99.90;;;;;;4913819;29;20430;-74
2022/01/19 12:37:27;;;;;;;15.67;8.87;;;7.70;99.90;;;;;;4912692;29;20452;-74
2022/01/19 12:39:54;;;;;;;14.50;9.67;;;7.60;99.90;;;;;;4913442;29;20968;-74
2022/01/19 12:42:27;;;;;;;12.10;8.80;;;7.50;99.90;;;;;;4909941;29;20825;-73
2022/01/19 12:44:58;;;;;;;12.70;8.40;;;7.30;99.90;;;;;;4912787;29;20546;-74
2022/01/19 12:49:54;;;;;;;14.03;8.40;;;7.20;99.90;;;;;;4912819;29;20507;-73
2022/01/19 12:52:22;;;;;;;12.63;7.90;;;7.20;99.90;;;;;;4914957;29;20429;-73
2022/01/19 12:54:49;;;;;;;11.70;7.90;;;7.20;99.90;;;;;;4913154;29;20471;-73
2022/01/19 12:57:15;;;;;;;14.53;8.87;;;7.10;99.90;;;;;;4914707;29;20426;-73
2022/01/19 12:59:43;;;;;;;10.73;8.43;;;7.00;99.90;;;;;;4912639;29;20508;-73
2022/01/19 13:02:13;;;;;;;16.40;8.20;;;7.00;99.90;;;;;;4914816;29;20447;-73
2022/01/19 13:04:40;;;;;;;12.80;7.73;;;7.00;99.90;;;;;;4912677;29;21160;-74
2022/01/19 13:07:20;;;;;;;13.60;8.23;;;7.00;99.90;;;;;;4914905;29;20428;-73
2022/01/19 13:10:18;;;;;;;11.73;8.40;;;6.80;99.90;;;;;;4914407;29;20831;-73
2022/01/19 13:13:29;;;;;;;11.17;8.50;;;6.90;99.90;;;;;;4908403;29;20536;-71
2022/01/19 13:15:47;;;;;;;11.67;8.37;;;6.90;99.90;;;;;;4904317;29;20545;-72
2022/01/19 13:18:36;;;;;;;11.27;6.87;;;7.10;99.90;;;;;;4912337;29;20791;-73
2022/01/19 13:21:10;;;;;;;16.53;9.00;;;7.30;99.90;;;;;;4913945;29;20452;-73
2022/01/19 13:23:59;;;;;;;10.50;7.13;;;7.40;99.90;;;;;;4911583;29;20815;-73
2022/01/19 13:26:35;;;;;;;10.37;7.63;;;7.40;99.90;;;;;;4914473;29;20959;-73
2022/01/19 13:29:38;;;;;;;12.10;7.80;;;7.40;99.90;;;;;;4910819;29;20973;-73
2022/01/19 13:32:19;;;;;;;11.43;6.70;;;7.50;99.90;;;;;;4915539;29;20464;-73
2022/01/19 13:35:11;;;;;;;10.77;7.10;;;7.50;99.90;;;;;;4910657;29;20443;-73
2022/01/19 13:37:41;;;;;;;12.80;6.20;;;7.40;99.90;;;;;;4913761;29;20849;-73
2022/01/19 13:40:15;;;;;;;10.43;6.90;;;7.10;99.90;;;;;;4912656;29;20454;-73
2022/01/19 13:42:47;;;;;;;10.23;7.53;;;7.00;99.90;;;;;;4916174;29;20510;-73
2022/01/19 13:45:38;;;;;;;11.20;7.10;;;6.90;99.90;;;;;;4911972;29;21087;-73
2022/01/19 13:51:05;;;;;;;8.07;5.10;;;6.70;99.90;;;;;;4915767;29;20520;-72
2022/01/19 13:53:37;;;;;;;9.60;6.23;;;6.70;99.90;;;;;;4917879;29;20417;-72
2022/01/19 13:56:09;;;;;;;9.33;6.30;;;6.70;99.90;;;;;;4916137;29;20511;-73
2022/01/19 13:58:56;;;;;;;10.60;5.40;;;6.70;99.90;;;;;;4914762;29;20480;-72
2022/01/19 14:01:38;;;;;;;9.00;6.00;;;6.80;99.90;;;;;;4915789;29;20443;-72
2022/01/19 14:04:10;;;;;;;5.37;4.50;;;6.90;99.90;;;;;;4917427;29;20419;-73
2022/01/19 14:06:43;;;;;;;7.73;4.47;;;6.80;99.90;;;;;;4916157;29;20447;-73
2022/01/19 14:09:14;;;;;;;6.97;4.30;;;6.80;99.90;;;;;;4915650;29;20454;-73
2022/01/19 14:11:49;;;;;;;5.60;4.10;;;6.70;99.90;;;;;;4917599;29;20419;-72
2022/01/19 14:14:23;;;;;;;6.27;4.27;;;6.70;99.90;;;;;;4915048;29;20793;-72
2022/01/19 14:16:51;;;;;;;7.07;4.23;;;6.60;99.90;;;;;;4917884;29;20409;-73
2022/01/19 14:19:21;;;;;;;4.87;3.53;;;6.60;99.90;;;;;;4913952;29;20500;-73
2022/01/19 14:21:53;;;;;;;8.67;4.97;;;6.50;99.90;;;;;;4917473;29;20434;-73
2022/01/19 14:24:18;;;;;;;8.40;4.27;;;6.40;99.90;;;;;;4915643;29;20448;-73
2022/01/19 14:26:56;;;;;;;5.53;3.40;;;6.50;99.90;;;;;;4917868;29;20397;-72
2022/01/19 14:29:23;;;;;;;12.50;5.20;;;6.50;99.90;;;;;;4914409;29;20272;-73
2022/01/19 14:31:59;;;;;;;7.73;4.90;;;6.40;99.90;;;;;;4915183;29;20447;-73
2022/01/19 14:34:43;;;;;;;6.00;5.00;;;6.40;99.90;;;;;;4911405;29;20473;-72
2022/01/19 14:37:19;;;;;;;7.93;4.90;;;6.40;99.90;;;;;;4917433;29;20732;-75
2022/01/19 14:39:57;;;;;;;12.83;6.20;;;6.30;99.90;;;;;;4914646;29;20858;-72
2022/01/19 14:42:35;;;;;;;7.90;5.07;;;6.30;99.90;;;;;;4916112;29;20446;-72
2022/01/19 14:45:28;;;;;;;4.60;4.03;;;6.30;99.90;;;;;;4913039;29;20443;-74
2022/01/19 14:47:57;;;;;;;8.20;5.10;;;6.20;99.90;;;;;;4917250;29;20428;-73
2022/01/19 14:50:35;;;;;;;10.00;5.30;;;6.10;99.90;;;;;;4915374;29;20519;-73
2022/01/19 14:53:02;;;;;;;6.50;4.50;;;6.10;99.90;;;;;;4898162;29;20407;-73
2022/01/19 14:55:36;;;;;;;6.60;4.70;;;6.10;99.90;;;;;;4902275;29;20498;-73
2022/01/19 14:58:06;;;;;;;6.63;5.47;;;6.10;99.90;;;;;;4915337;29;20427;-73
2022/01/19 15:00:33;;;;;;;7.70;6.23;;;6.10;99.90;;;;;;4914830;29;20451;-72
2022/01/19 15:03:01;;;;;;;9.53;6.93;;;6.00;99.90;;;;;;4914670;29;20445;-73
2022/01/19 15:05:29;;;;;;;7.13;5.40;;;6.00;99.90;;;;;;4916975;29;20985;-74
2022/01/19 15:07:55;;;;;;;7.87;6.10;;;6.00;99.90;;;;;;4915272;29;20419;-73
2022/01/19 15:10:22;;;;;;;10.27;7.13;;;5.90;99.90;;;;;;4916564;29;20532;-74
2022/01/19 15:12:52;;;;;;;8.17;5.00;;;5.90;99.90;;;;;;4910591;29;20527;-71
2022/01/19 15:15:31;;;;;;;12.43;6.90;;;5.90;99.90;;;;;;4912589;29;20490;-73
2022/01/19 15:17:58;;;;;;;6.37;5.77;;;5.90;99.90;;;;;;4915184;29;20501;-73
2022/01/19 15:20:26;;;;;;;8.73;5.40;;;5.90;99.90;;;;;;4916390;29;20892;-74
2022/01/19 15:22:57;;;;;;;10.60;7.30;;;5.80;99.90;;;;;;4914270;29;21044;-73
2022/01/19 15:25:24;;;;;;;8.60;6.70;;;5.80;99.90;;;;;;4914446;29;20913;-72
2022/01/19 15:27:49;;;;;;;11.13;5.93;;;5.80;99.90;;;;;;4914273;29;20861;-74
2022/01/19 15:30:15;;;;;;;11.33;6.73;;;5.70;99.90;;;;;;4915623;29;20506;-73
2022/01/19 15:32:40;;;;;;;10.17;6.53;;;5.70;99.90;;;;;;4915727;29;20216;-73
2022/01/19 15:35:08;;;;;;;14.63;7.07;;;5.80;99.90;;;;;;4912297;29;20215;-73
2022/01/19 15:37:33;;;;;;;15.10;9.30;;;5.80;99.90;;;;;;4916567;29;20582;-73
2022/01/19 15:39:59;;;;;;;13.10;7.50;;;5.80;99.90;;;;;;4914463;29;20474;-71
2022/01/19 15:42:24;;;;;;;21.13;7.60;;;5.70;99.90;;;;;;4915521;29;20199;-71
2022/01/19 15:44:50;;;;;;;10.77;6.13;;;5.70;99.90;;;;;;4912280;29;20243;-73
2022/01/19 15:47:18;;;;;;;14.30;9.17;;;5.70;99.90;;;;;;4916139;29;20570;-73
2022/01/19 15:49:44;;;;;;;14.07;7.33;;;5.70;99.90;;;;;;4910152;29;20357;-74
2022/01/19 15:52:10;;;;;;;19.43;9.70;;;5.60;99.90;;;;;;4912274;29;20452;-73
2022/01/19 15:54:36;;;;;;;15.80;9.77;;;5.60;99.90;;;;;;4915294;29;20519;-73
2022/01/19 15:57:03;;;;;;;14.83;8.30;;;5.60;99.90;;;;;;4908664;29;20196;-73
2022/01/19 15:59:29;;;;;;;9.23;6.20;;;5.60;99.90;;;;;;4910181;29;20561;-71
2022/01/19 16:01:55;;;;;;;14.30;6.40;;;5.60;99.90;;;;;;4909354;29;20459;-73
2022/01/19 16:04:21;;;;;;;10.10;7.30;;;5.60;99.90;;;;;;4903675;29;20184;-73
2022/01/19 16:06:46;;;;;;;8.93;7.03;;;5.60;99.90;;;;;;4901256;29;21552;-73
2022/01/19 16:09:14;;;;;;;11.73;8.10;;;5.60;99.90;;;;;;4919737;29;20507;-72
2022/01/19 16:11:41;;;;;;;11.37;6.30;;;5.60;99.90;;;;;;4922308;29;20216;-75
2022/01/19 16:14:07;;;;;;;10.77;6.43;;;5.60;99.90;;;;;;4913898;29;20461;-73
2022/01/19 16:16:33;;;;;;;8.67;5.10;;;5.50;99.90;;;;;;4915450;29;20415;-73
2022/01/19 16:18:58;;;;;;;7.87;5.10;;;5.50;99.90;;;;;;4912180;29;20452;-75
2022/01/19 16:21:24;;;;;;;8.23;5.83;;;5.50;99.90;;;;;;4914688;29;20213;-72
2022/01/19 16:26:35;;;;;;;8.97;5.50;;;5.50;99.90;;;;;;4915613;29;20191;-73
2022/01/19 16:29:00;;;;;;;6.10;4.53;;;5.40;99.90;;;;;;4912318;29;20849;-74
2022/01/19 16:31:26;;;;;;;5.67;4.27;;;5.40;99.90;;;;;;4908363;29;20472;-72
2022/01/19 16:33:53;;;;;;;8.40;4.73;;;5.40;99.90;;;;;;4914038;29;20742;-73
2022/01/19 16:36:19;;;;;;;5.57;4.17;;;5.30;99.90;;;;;;4914074;29;20177;-73
2022/01/19 16:38:45;;;;;;;8.83;4.67;;;5.30;99.90;;;;;;4915716;29;20415;-73
2022/01/19 16:41:13;;;;;;;6.10;4.80;;;5.40;99.90;;;;;;4910554;29;20582;-72
2022/01/19 16:43:41;;;;;;;8.47;5.70;;;5.30;99.90;;;;;;4907195;29;20858;-73
2022/01/19 16:46:06;;;;;;;7.50;5.60;;;5.20;99.90;;;;;;4910586;29;20451;-74
2022/01/19 16:48:34;;;;;;;6.87;4.93;;;5.30;99.90;;;;;;4913253;29;20428;-74
2022/01/19 16:51:00;;;;;;;6.87;5.37;;;5.30;99.90;;;;;;4914517;29;20234;-72
2022/01/19 16:53:29;;;;;;;7.77;4.90;;;5.30;99.90;;;;;;4911657;29;20458;-74
2022/01/19 16:55:57;;;;;;;7.20;4.83;;;5.20;99.90;;;;;;4913688;29;20420;-75
2022/01/19 16:58:26;;;;;;;6.23;5.00;;;5.20;99.90;;;;;;4911740;29;20835;-74
2022/01/19 17:00:57;;;;;;;7.57;5.07;;;5.20;99.90;;;;;;4925701;29;20437;-73
2022/01/19 17:03:26;;;;;;;6.93;4.33;;;5.20;99.90;;;;;;4929981;29;20952;-74
2022/01/19 17:05:51;;;;;;;7.90;5.03;;;5.20;99.90;;;;;;4917070;29;21001;-73
2022/01/19 17:08:18;;;;;;;6.77;4.37;;;5.20;99.90;;;;;;4919712;29;20427;-74
2022/01/19 17:10:49;;;;;;;6.70;5.20;;;5.20;99.90;;;;;;4899429;29;20249;-72
2022/01/19 17:13:29;;;;;;;8.10;5.13;;;5.20;99.90;;;;;;4898492;29;20503;-73
2022/01/19 17:15:56;;;;;;;6.37;4.80;;;5.20;99.90;;;;;;4912294;29;20434;-73
2022/01/19 17:18:23;;;;;;;8.10;4.73;;;5.20;99.90;;;;;;4913714;29;20935;-72
2022/01/19 17:20:48;;;;;;;15.83;4.80;;;5.20;99.90;;;;;;4913296;29;20412;-72
2022/01/19 17:23:16;;;;;;;8.90;5.40;;;5.20;99.90;;;;;;4917993;29;20425;-72
2022/01/19 17:25:42;;;;;;;6.90;5.10;;;5.20;99.90;;;;;;4918762;29;20173;-73
2022/01/19 17:28:09;;;;;;;6.37;5.20;;;5.20;99.90;;;;;;4905231;29;20508;-75
2022/01/19 17:30:36;;;;;;;9.50;6.13;;;5.20;99.90;;;;;;4918194;29;20861;-74
2022/01/19 17:33:03;;;;;;;6.53;5.13;;;5.30;99.90;;;;;;4914070;29;20457;-74
2022/01/19 17:35:28;;;;;;;8.10;5.60;;;5.30;99.90;;;;;;4918304;29;20438;-74
2022/01/19 17:37:54;;;;;;;7.47;5.47;;;5.30;99.90;;;;;;4916624;29;20430;-74
2022/01/19 17:40:20;;;;;;;6.83;5.30;;;5.20;99.90;;;;;;4916771;29;20188;-74
2022/01/19 17:42:46;;;;;;;7.53;4.57;;;5.20;99.90;;;;;;4916196;29;20219;-73
2022/01/19 17:45:21;;;;;;;5.83;4.63;;;5.20;99.90;;;;;;4915929;29;20203;-73